Eugen Maersk — OXOS2 — position and weather

sailwx.info

Track history (hours):
 
Tides and Currents Weather Stations Pressure Air Temp Water Temp Dewpoint Dewpoint Depression Visibility Wind Speed Wind Dir Waves Ship Positions

Eugen Maersk

Last reported at 2018-Aug-02 21:20 UTC. Time now 2018-Aug-14 06:58 UTC.
Position N 01°27' E 104°30'.
Warning: this ship's position is 11 days out of date.

Length 399 m; draft 12.2 m.

Type: Ship (hazmat cat A). MMSI: 220503000.

Date/timePositionNaut miles runAvg speedWind from/ knotsBaromVisibWave heightAir tempDewpointWater temp
2018-Aug-02 21:20N 01°27' E 104°30'718.7
2018-Aug-02 20:57N 01°22' E 104°25'818.1
2018-Aug-02 20:30N 01°17' E 104°18'918.3
2018-Aug-02 19:59N 01°16' E 104°09'918.1
2018-Aug-02 19:30N 01°14' E 104°01'917.1
2018-Aug-02 19:00N 01°11' E 103°52'816.4
2018-Aug-02 18:30N 01°07' E 103°45'915.7
2018-Aug-02 17:57N 01°03' E 103°38'817.4
2018-Aug-02 17:30N 01°07' E 103°31'916.9
2018-Aug-02 17:00N 01°11' E 103°24'817.2
2018-Aug-02 16:30N 01°17' E 103°17'  
Track history (hours):
 
Tides and Currents Weather Stations Pressure Air Temp Water Temp Dewpoint Dewpoint Depression Visibility Wind Speed Wind Dir Waves Ship Positions

Eugen Maersk

Last reported at 2018-Aug-02 21:20 UTC. Time now 2018-Aug-14 06:58 UTC.
Position N 01°27' E 104°30'.
Warning: this ship's position is 11 days out of date.

Length 399 m; draft 12.2 m.

Type: Ship (hazmat cat A). MMSI: 220503000.

Date/timePositionNaut miles runAvg speedWind from/ knotsBaromVisibWave heightAir tempDewpointWater temp
2018-Aug-02 21:20N 01°27' E 104°30'718.7
2018-Aug-02 20:57N 01°22' E 104°25'818.1
2018-Aug-02 20:30N 01°17' E 104°18'918.3
2018-Aug-02 19:59N 01°16' E 104°09'918.1
2018-Aug-02 19:30N 01°14' E 104°01'917.1
2018-Aug-02 19:00N 01°11' E 103°52'816.4
2018-Aug-02 18:30N 01°07' E 103°45'915.7
2018-Aug-02 17:57N 01°03' E 103°38'817.4
2018-Aug-02 17:30N 01°07' E 103°31'916.9
2018-Aug-02 17:00N 01°11' E 103°24'817.2
2018-Aug-02 16:30N 01°17' E 103°17'  

Dump ship's entire track history